createdAt,value
2023-06-29T00:01:34.878Z,5.93
2023-06-29T00:04:02.720Z,5.93
2023-06-29T00:06:29.696Z,6.10
2023-06-29T00:08:56.619Z,7.00
2023-06-29T00:11:23.757Z,5.57
2023-06-29T00:13:50.640Z,5.57
2023-06-29T00:16:18.206Z,8.40
2023-06-29T00:18:45.699Z,7.30
2023-06-29T00:21:12.577Z,5.87
2023-06-29T00:23:39.488Z,5.43
2023-06-29T00:26:06.417Z,6.60
2023-06-29T00:28:33.465Z,5.97
2023-06-29T00:31:00.639Z,5.47
2023-06-29T00:33:28.278Z,8.27
2023-06-29T00:35:56.821Z,6.03
2023-06-29T00:38:24.109Z,7.33
2023-06-29T00:40:50.995Z,7.23
2023-06-29T00:43:19.168Z,7.73
2023-06-29T00:45:46.030Z,4.77
2023-06-29T00:48:14.293Z,4.00
2023-06-29T00:50:42.624Z,4.07
2023-06-29T00:53:09.597Z,6.27
2023-06-29T00:55:38.273Z,4.40
2023-06-29T00:58:05.199Z,5.67
2023-06-29T01:00:32.058Z,5.40
2023-06-29T01:02:59.337Z,4.93
2023-06-29T01:05:26.398Z,5.60
2023-06-29T01:08:42.650Z,5.03
2023-06-29T01:11:11.045Z,4.27
2023-06-29T01:13:39.643Z,5.77
2023-06-29T01:16:07.709Z,5.83
2023-06-29T01:18:36.068Z,6.37
2023-06-29T01:21:04.165Z,4.47
2023-06-29T01:23:38.062Z,6.63
2023-06-29T01:26:06.659Z,4.20
2023-06-29T01:28:39.528Z,4.83
2023-06-29T01:31:10.651Z,5.10
2023-06-29T01:33:37.820Z,5.67
2023-06-29T01:36:15.919Z,7.43
2023-06-29T01:38:56.783Z,5.97
2023-06-29T01:41:25.780Z,5.27
2023-06-29T01:43:53.495Z,6.67
2023-06-29T01:46:21.952Z,4.90
2023-06-29T01:48:50.727Z,8.60
2023-06-29T01:51:18.082Z,6.40
2023-06-29T01:53:45.290Z,6.50
2023-06-29T01:56:12.383Z,5.50
2023-06-29T01:58:39.227Z,6.17
2023-06-29T02:01:06.186Z,4.97
2023-06-29T02:03:33.664Z,6.43
2023-06-29T02:06:00.571Z,5.83
2023-06-29T02:08:27.529Z,8.87
2023-06-29T02:10:54.460Z,6.27
2023-06-29T02:13:21.374Z,7.20
2023-06-29T02:15:48.935Z,5.03
2023-06-29T02:18:15.857Z,7.27
2023-06-29T02:20:43.111Z,5.57
2023-06-29T02:23:10.177Z,4.70
2023-06-29T02:25:37.176Z,4.43
2023-06-29T02:28:04.276Z,6.13
2023-06-29T02:30:31.504Z,5.23
2023-06-29T02:32:58.511Z,6.60
2023-06-29T02:35:25.751Z,5.90
2023-06-29T02:37:52.662Z,5.27
2023-06-29T02:40:19.760Z,5.87
2023-06-29T02:42:46.697Z,4.57
2023-06-29T02:45:13.848Z,4.90
2023-06-29T02:47:40.817Z,7.43
2023-06-29T02:50:08.880Z,8.07
2023-06-29T02:52:48.685Z,8.63
2023-06-29T02:55:15.805Z,5.37
2023-06-29T02:57:42.847Z,4.70
2023-06-29T03:00:10.633Z,6.50
2023-06-29T03:02:38.397Z,6.37
2023-06-29T03:05:05.902Z,5.77
2023-06-29T03:07:34.166Z,5.33
2023-06-29T03:10:02.968Z,6.73
2023-06-29T03:12:29.832Z,7.00
2023-06-29T03:14:56.919Z,5.43
2023-06-29T03:17:25.725Z,6.27
2023-06-29T03:19:52.699Z,7.73
2023-06-29T03:22:19.861Z,7.37
2023-06-29T03:24:46.706Z,6.27
2023-06-29T03:27:13.532Z,7.90
2023-06-29T03:29:40.358Z,7.93
2023-06-29T03:32:07.709Z,7.57
2023-06-29T03:34:34.831Z,8.63
2023-06-29T03:37:01.703Z,5.40
2023-06-29T03:39:28.537Z,6.00
2023-06-29T03:41:55.430Z,4.90
2023-06-29T03:44:22.267Z,6.60
2023-06-29T03:46:49.309Z,7.90
2023-06-29T03:49:16.171Z,7.53
2023-06-29T03:51:43.316Z,6.50
2023-06-29T03:54:10.551Z,6.20
2023-06-29T03:56:37.643Z,5.73
2023-06-29T03:59:04.750Z,8.80
2023-06-29T04:01:31.889Z,7.03
2023-06-29T04:03:59.027Z,6.20
2023-06-29T04:06:25.927Z,7.03
2023-06-29T04:08:52.784Z,7.50
2023-06-29T04:11:19.746Z,7.63
2023-06-29T04:13:46.847Z,7.10
2023-06-29T04:16:14.325Z,8.07
2023-06-29T04:18:41.263Z,8.33
2023-06-29T04:21:08.478Z,7.83
2023-06-29T04:23:35.545Z,8.27
2023-06-29T04:26:04.619Z,8.07
2023-06-29T04:28:35.479Z,8.93
2023-06-29T04:31:03.067Z,7.20
2023-06-29T04:33:29.980Z,11.50
2023-06-29T04:35:57.075Z,6.33
2023-06-29T04:38:27.644Z,6.63
2023-06-29T04:41:05.025Z,9.27
2023-06-29T04:43:32.870Z,6.73
2023-06-29T04:46:05.082Z,6.17
2023-06-29T04:48:39.019Z,8.77
2023-06-29T04:51:06.826Z,8.50
2023-06-29T04:53:35.328Z,7.50
2023-06-29T04:56:05.554Z,7.10
2023-06-29T04:58:33.033Z,7.77
2023-06-29T05:01:00.275Z,7.00
2023-06-29T05:03:28.193Z,7.53
2023-06-29T05:05:55.433Z,7.13
2023-06-29T05:08:22.299Z,7.70
2023-06-29T05:10:49.434Z,7.77
2023-06-29T05:13:16.300Z,7.13
2023-06-29T05:15:48.806Z,7.43
2023-06-29T05:18:17.065Z,10.63
2023-06-29T05:20:44.357Z,7.30
2023-06-29T05:23:12.952Z,7.17
2023-06-29T05:25:42.063Z,7.93
2023-06-29T05:28:09.661Z,8.10
2023-06-29T05:30:36.708Z,6.33
2023-06-29T05:33:05.431Z,9.33
2023-06-29T05:35:32.788Z,8.17
2023-06-29T05:37:59.678Z,6.93
2023-06-29T05:40:26.603Z,7.87
2023-06-29T05:42:53.479Z,7.67
2023-06-29T05:45:20.438Z,7.03
2023-06-29T05:47:47.674Z,7.10
2023-06-29T05:50:14.632Z,6.03
2023-06-29T05:52:41.477Z,9.43
2023-06-29T05:55:08.857Z,8.43
2023-06-29T05:57:35.697Z,10.40
2023-06-29T06:00:07.726Z,7.27
2023-06-29T06:02:34.558Z,7.07
2023-06-29T06:05:01.421Z,8.20
2023-06-29T06:07:30.875Z,6.83
2023-06-29T06:09:57.998Z,8.33
2023-06-29T06:12:25.340Z,9.53
2023-06-29T06:14:52.737Z,8.30
2023-06-29T06:17:19.879Z,9.57
2023-06-29T06:19:46.746Z,6.43
2023-06-29T06:22:14.152Z,11.87
2023-06-29T06:24:41.023Z,6.87
2023-06-29T06:27:08.185Z,7.43
2023-06-29T06:29:35.081Z,5.43
2023-06-29T06:32:01.966Z,6.93
2023-06-29T06:34:31.718Z,7.27
2023-06-29T06:36:59.455Z,6.73
2023-06-29T06:39:26.360Z,6.03
2023-06-29T06:41:53.284Z,5.40
2023-06-29T06:44:22.219Z,6.13
2023-06-29T06:46:49.185Z,8.77
2023-06-29T06:49:16.171Z,7.87
2023-06-29T06:51:43.330Z,8.67
2023-06-29T06:54:10.193Z,6.90
2023-06-29T06:56:38.322Z,9.80
2023-06-29T06:59:05.905Z,7.57
2023-06-29T07:01:32.835Z,5.57
2023-06-29T07:04:00.070Z,5.15
2023-06-29T07:06:32.224Z,7.97
2023-06-29T07:09:00.540Z,5.28
2023-06-29T07:11:28.073Z,6.75
2023-06-29T07:13:54.896Z,5.45
2023-06-29T07:16:22.770Z,5.38
2023-06-29T07:21:38.697Z,5.85
2023-06-29T07:24:08.186Z,6.10
2023-06-29T07:26:36.308Z,6.10
2023-06-29T07:29:05.823Z,4.63
2023-06-29T07:31:33.186Z,4.55
2023-06-29T07:34:00.502Z,6.53
2023-06-29T07:36:28.489Z,4.20
2023-06-29T07:38:56.266Z,6.30
2023-06-29T07:41:23.772Z,3.58
2023-06-29T07:43:57.399Z,9.02
2023-06-29T07:46:25.099Z,4.50
2023-06-29T07:48:53.292Z,4.85
2023-06-29T07:51:21.271Z,4.97
2023-06-29T07:53:48.596Z,3.78
2023-06-29T07:56:15.951Z,5.40
2023-06-29T07:58:42.971Z,4.40
2023-06-29T08:01:10.135Z,3.38
2023-06-29T08:03:55.373Z,4.82
2023-06-29T08:08:54.179Z,4.35
2023-06-29T08:11:22.339Z,5.10
2023-06-29T08:13:49.420Z,4.70
2023-06-29T08:16:17.304Z,5.45
2023-06-29T08:18:44.294Z,4.60
2023-06-29T08:21:11.876Z,5.88
2023-06-29T08:23:39.030Z,3.80
2023-06-29T08:26:06.150Z,3.80
2023-06-29T08:28:33.027Z,7.50
2023-06-29T08:30:59.894Z,4.60
2023-06-29T08:33:27.147Z,3.70
2023-06-29T08:35:54.024Z,3.22
2023-06-29T08:38:20.912Z,3.50
2023-06-29T08:40:51.124Z,2.88
2023-06-29T08:43:21.797Z,3.42
2023-06-29T08:45:48.709Z,4.38
2023-06-29T08:48:18.473Z,5.07
2023-06-29T08:50:55.356Z,4.70
2023-06-29T08:53:22.375Z,2.97
2023-06-29T08:55:51.166Z,4.15
2023-06-29T08:58:22.218Z,3.60
2023-06-29T09:00:50.285Z,4.30
2023-06-29T09:03:19.234Z,3.80
2023-06-29T09:05:49.253Z,3.78
2023-06-29T09:08:16.759Z,2.85
2023-06-29T09:10:48.157Z,3.05
2023-06-29T09:13:15.172Z,4.68
2023-06-29T09:15:42.646Z,4.50
2023-06-29T09:18:11.795Z,2.97
2023-06-29T09:20:39.001Z,2.65
2023-06-29T09:23:06.390Z,3.03
2023-06-29T09:25:40.155Z,2.67
2023-06-29T09:28:08.756Z,2.60
2023-06-29T09:30:41.421Z,3.45
2023-06-29T09:33:13.879Z,4.80
2023-06-29T09:35:46.054Z,6.38
2023-06-29T09:38:15.315Z,3.53
2023-06-29T09:40:54.579Z,3.50
2023-06-29T09:43:29.801Z,7.55
2023-06-29T09:46:08.473Z,5.30
2023-06-29T09:51:23.202Z,3.90
2023-06-29T09:53:50.293Z,5.13
2023-06-29T09:56:18.411Z,4.88
2023-06-29T09:58:47.626Z,4.97
2023-06-29T10:01:16.504Z,2.72
2023-06-29T10:03:43.641Z,2.65
2023-06-29T10:06:16.901Z,2.63
2023-06-29T10:08:48.549Z,2.28
2023-06-29T10:11:16.505Z,2.85
2023-06-29T10:13:50.181Z,2.28
2023-06-29T10:16:22.769Z,3.22
2023-06-29T10:18:55.548Z,5.75
2023-06-29T10:21:23.385Z,4.53
2023-06-29T10:23:53.539Z,2.75
2023-06-29T10:26:21.397Z,2.58
2023-06-29T10:28:48.431Z,3.17
2023-06-29T10:31:30.711Z,5.07
2023-06-29T10:33:59.339Z,4.40
2023-06-29T10:36:26.761Z,3.03
2023-06-29T10:38:53.615Z,3.80
2023-06-29T10:41:29.888Z,4.35
2023-06-29T10:44:06.810Z,6.25
2023-06-29T10:46:46.728Z,3.35
2023-06-29T10:49:27.410Z,3.95
2023-06-29T10:52:01.333Z,2.17
2023-06-29T10:54:28.453Z,2.55
2023-06-29T10:57:02.975Z,3.45
2023-06-29T10:59:34.988Z,2.22
2023-06-29T11:02:04.344Z,2.85
2023-06-29T11:04:31.980Z,3.92
2023-06-29T11:07:08.089Z,2.28
2023-06-29T11:09:35.500Z,3.08
2023-06-29T11:12:02.826Z,2.47
2023-06-29T11:14:30.034Z,4.53
2023-06-29T11:16:57.043Z,3.30
2023-06-29T11:19:29.269Z,3.13
2023-06-29T11:21:56.319Z,4.53
2023-06-29T11:24:23.479Z,2.92
2023-06-29T11:26:50.584Z,5.13
2023-06-29T11:29:18.164Z,3.92
2023-06-29T11:31:45.212Z,4.35
2023-06-29T11:34:14.447Z,3.75
2023-06-29T11:36:41.315Z,3.80
2023-06-29T11:39:11.898Z,4.72
2023-06-29T11:41:41.789Z,3.85
2023-06-29T11:44:11.617Z,2.55
2023-06-29T11:46:54.257Z,2.92
2023-06-29T11:49:26.782Z,5.28
2023-06-29T11:51:54.036Z,3.38
2023-06-29T11:54:21.049Z,3.13
2023-06-29T11:56:49.796Z,7.32
2023-06-29T11:59:16.953Z,3.00
2023-06-29T12:01:47.850Z,3.92
2023-06-29T12:04:15.610Z,3.78
2023-06-29T12:06:53.830Z,4.57
2023-06-29T12:09:21.645Z,4.00
2023-06-29T12:11:59.924Z,3.53
2023-06-29T12:14:36.627Z,4.13
2023-06-29T12:19:35.592Z,2.92
2023-06-29T12:22:05.335Z,4.70
2023-06-29T12:24:34.412Z,4.07
2023-06-29T12:27:01.427Z,6.30
2023-06-29T12:29:28.509Z,2.75
2023-06-29T12:32:02.071Z,3.30
2023-06-29T12:34:32.313Z,3.50
2023-06-29T12:36:59.523Z,2.63
2023-06-29T12:39:26.432Z,2.90
2023-06-29T12:41:54.853Z,2.85
2023-06-29T12:44:21.908Z,4.28
2023-06-29T12:46:48.946Z,3.72
2023-06-29T12:49:15.979Z,3.08
2023-06-29T12:51:42.995Z,4.18
2023-06-29T12:54:10.919Z,5.68
2023-06-29T12:56:39.902Z,4.72
2023-06-29T12:59:06.720Z,4.93
2023-06-29T13:01:33.614Z,4.50
2023-06-29T13:04:00.756Z,5.95
2023-06-29T13:06:27.978Z,6.65
2023-06-29T13:08:56.564Z,3.97
2023-06-29T13:11:23.642Z,3.40
2023-06-29T13:13:51.798Z,3.63
2023-06-29T13:16:18.898Z,3.75
2023-06-29T13:18:45.852Z,3.10
2023-06-29T13:21:12.943Z,4.65
2023-06-29T13:23:40.079Z,4.03
2023-06-29T13:26:06.993Z,4.75
2023-06-29T13:28:34.557Z,3.17
2023-06-29T13:31:01.546Z,4.57
2023-06-29T13:33:28.725Z,7.28
2023-06-29T13:35:55.814Z,3.65
2023-06-29T13:38:22.674Z,3.60
2023-06-29T13:40:49.785Z,3.33
2023-06-29T13:43:16.707Z,4.18
2023-06-29T13:45:43.961Z,4.53
2023-06-29T13:48:11.694Z,5.00
2023-06-29T13:50:41.821Z,3.78
2023-06-29T13:53:10.014Z,4.65
2023-06-29T13:55:37.675Z,3.13
2023-06-29T13:58:04.597Z,3.63
2023-06-29T14:00:31.466Z,5.57
2023-06-29T14:02:58.364Z,6.07
2023-06-29T14:05:25.284Z,3.90
2023-06-29T14:07:52.092Z,3.55
2023-06-29T14:10:19.149Z,2.92
2023-06-29T14:12:46.012Z,6.13
2023-06-29T14:15:13.059Z,5.85
2023-06-29T14:17:40.259Z,4.18
2023-06-29T14:20:08.173Z,2.97
2023-06-29T14:22:36.348Z,4.03
2023-06-29T14:25:04.921Z,4.28
2023-06-29T14:27:31.791Z,2.55
2023-06-29T14:29:58.647Z,4.47
2023-06-29T14:32:25.546Z,3.55
2023-06-29T14:34:52.519Z,4.18
2023-06-29T14:37:19.337Z,5.25
2023-06-29T14:39:46.279Z,3.70
2023-06-29T14:42:13.158Z,4.43
2023-06-29T14:44:42.877Z,4.18
2023-06-29T14:47:11.664Z,3.28
2023-06-29T14:49:38.726Z,3.72
2023-06-29T14:52:05.837Z,4.82
2023-06-29T14:54:32.929Z,3.35
2023-06-29T14:57:00.006Z,5.60
2023-06-29T14:59:27.179Z,9.40
2023-06-29T15:01:54.330Z,6.07
2023-06-29T15:04:21.206Z,6.85
2023-06-29T15:06:52.360Z,3.30
2023-06-29T15:09:20.215Z,4.07
2023-06-29T15:11:47.120Z,3.13
2023-06-29T15:14:13.967Z,2.47
2023-06-29T15:16:43.348Z,3.63
2023-06-29T15:19:10.618Z,3.92
2023-06-29T15:21:37.459Z,4.45
2023-06-29T15:24:05.405Z,3.38
2023-06-29T15:26:32.507Z,3.58
2023-06-29T15:28:59.370Z,3.70
2023-06-29T15:31:29.332Z,7.28
2023-06-29T15:33:56.187Z,6.22
2023-06-29T15:36:23.297Z,3.25
2023-06-29T15:38:50.447Z,4.45
2023-06-29T15:41:17.285Z,3.60
2023-06-29T15:43:45.858Z,5.70
2023-06-29T15:46:15.392Z,5.88
2023-06-29T15:48:42.469Z,4.85
2023-06-29T15:51:09.758Z,4.82
2023-06-29T15:53:37.357Z,4.40
2023-06-29T15:56:04.748Z,4.90
2023-06-29T15:58:31.573Z,4.63
2023-06-29T16:00:58.430Z,4.50
2023-06-29T16:03:25.437Z,6.60
2023-06-29T16:05:52.366Z,6.22
2023-06-29T16:08:19.287Z,4.57
2023-06-29T16:10:46.376Z,7.07
2023-06-29T16:13:13.597Z,4.28
2023-06-29T16:15:40.507Z,7.65
2023-06-29T16:18:07.383Z,6.15
2023-06-29T16:20:34.751Z,5.63
2023-06-29T16:23:02.418Z,5.25
2023-06-29T16:25:29.545Z,7.80
2023-06-29T16:27:56.689Z,8.13
2023-06-29T16:30:24.321Z,5.97
2023-06-29T16:32:51.276Z,10.57
2023-06-29T16:35:18.558Z,9.60
2023-06-29T16:37:47.463Z,9.15
2023-06-29T16:40:14.575Z,11.07
2023-06-29T16:42:41.660Z,9.60
2023-06-29T16:45:09.076Z,7.93
2023-06-29T16:47:35.953Z,9.95
2023-06-29T16:50:02.930Z,11.57
2023-06-29T16:52:29.941Z,10.13
2023-06-29T16:54:56.767Z,11.25
2023-06-29T16:57:23.908Z,11.80
2023-06-29T16:59:51.091Z,11.10
2023-06-29T17:02:17.931Z,12.63
2023-06-29T17:04:45.131Z,10.88
2023-06-29T17:07:11.967Z,14.95
2023-06-29T17:09:38.902Z,11.93
2023-06-29T17:12:07.713Z,10.75
2023-06-29T17:14:34.852Z,12.43
2023-06-29T17:17:01.917Z,17.42
2023-06-29T17:19:28.895Z,9.82
2023-06-29T17:21:55.977Z,14.07
2023-06-29T17:24:22.973Z,16.27
2023-06-29T17:26:49.844Z,14.10
2023-06-29T17:29:16.692Z,11.80
2023-06-29T17:31:43.908Z,14.90
2023-06-29T17:34:10.914Z,15.07
2023-06-29T17:36:38.173Z,15.60
2023-06-29T17:39:05.559Z,13.45
2023-06-29T17:41:32.504Z,17.15
2023-06-29T17:43:59.558Z,17.52
2023-06-29T17:46:26.491Z,19.05
2023-06-29T17:48:53.314Z,20.15
2023-06-29T17:51:20.505Z,17.73
2023-06-29T17:53:47.695Z,18.58
2023-06-29T17:56:16.239Z,16.55
2023-06-29T17:58:46.925Z,19.50
2023-06-29T18:01:14.811Z,15.27
2023-06-29T18:03:42.762Z,17.33
2023-06-29T18:06:11.405Z,21.60
2023-06-29T18:08:39.606Z,18.67
2023-06-29T18:11:09.868Z,16.40
2023-06-29T18:13:37.543Z,17.17
2023-06-29T18:16:04.830Z,16.13
2023-06-29T18:18:33.081Z,17.48
2023-06-29T18:21:01.975Z,20.15
2023-06-29T18:23:29.155Z,18.50
2023-06-29T18:25:56.005Z,20.08
2023-06-29T18:28:23.113Z,17.30
2023-06-29T18:30:50.208Z,17.75
2023-06-29T18:33:17.147Z,14.05
2023-06-29T18:35:44.681Z,16.77
2023-06-29T18:38:12.018Z,16.20
2023-06-29T18:40:38.854Z,14.23
2023-06-29T18:43:05.726Z,20.15
2023-06-29T18:45:32.629Z,14.95
2023-06-29T18:47:59.743Z,15.10
2023-06-29T18:50:26.685Z,13.13
2023-06-29T18:52:55.619Z,14.20
2023-06-29T18:55:22.723Z,13.55
2023-06-29T18:57:49.912Z,15.48
2023-06-29T19:00:17.197Z,18.05
2023-06-29T19:02:44.717Z,14.43
2023-06-29T19:05:12.149Z,14.40
2023-06-29T19:07:39.115Z,13.82
2023-06-29T19:10:07.010Z,13.52
2023-06-29T19:12:33.906Z,16.58
2023-06-29T19:15:01.138Z,14.80
2023-06-29T19:17:29.323Z,13.38
2023-06-29T19:19:56.416Z,11.07
2023-06-29T19:22:23.244Z,15.57
2023-06-29T19:24:50.348Z,13.77
2023-06-29T19:27:17.247Z,12.85
2023-06-29T19:29:44.118Z,13.68
2023-06-29T19:32:11.344Z,13.40
2023-06-29T19:34:39.416Z,18.70
2023-06-29T19:37:06.559Z,12.90
2023-06-29T19:39:33.681Z,11.80
2023-06-29T19:42:00.608Z,14.02
2023-06-29T19:44:27.679Z,14.27
2023-06-29T19:46:54.797Z,14.90
2023-06-29T19:49:21.624Z,14.07
2023-06-29T19:51:48.488Z,13.10
2023-06-29T19:54:15.409Z,13.20
2023-06-29T19:56:42.320Z,15.33
2023-06-29T19:59:09.256Z,15.70
2023-06-29T20:01:36.213Z,16.83
2023-06-29T20:04:03.420Z,15.77
2023-06-29T20:06:31.791Z,15.47
2023-06-29T20:08:59.033Z,16.30
2023-06-29T20:11:26.123Z,12.87
2023-06-29T20:13:52.972Z,17.10
2023-06-29T20:16:21.049Z,15.77
2023-06-29T20:18:48.054Z,15.70
2023-06-29T20:21:15.544Z,15.27
2023-06-29T20:23:42.731Z,16.40
2023-06-29T20:26:09.880Z,16.60
2023-06-29T20:28:36.966Z,13.90
2023-06-29T20:31:04.028Z,18.83
2023-06-29T20:33:30.984Z,16.87
2023-06-29T20:35:58.149Z,15.27
2023-06-29T20:38:26.403Z,15.03
2023-06-29T20:40:54.239Z,14.60
2023-06-29T20:43:22.383Z,16.53
2023-06-29T20:45:50.290Z,15.20
2023-06-29T20:48:17.498Z,16.53
2023-06-29T20:50:44.448Z,13.60
2023-06-29T20:53:11.496Z,14.50
2023-06-29T20:55:38.385Z,13.77
2023-06-29T20:58:05.701Z,17.80
2023-06-29T21:00:35.293Z,15.87
2023-06-29T21:03:02.574Z,16.43
2023-06-29T21:05:29.763Z,15.73
2023-06-29T21:07:56.652Z,14.90
2023-06-29T21:10:23.637Z,18.23
2023-06-29T21:12:51.026Z,16.40
2023-06-29T21:15:18.296Z,21.37
2023-06-29T21:17:45.373Z,27.30
2023-06-29T21:20:13.170Z,17.90
2023-06-29T21:22:41.278Z,14.93
2023-06-29T21:25:09.204Z,14.00
2023-06-29T21:27:38.317Z,18.53
2023-06-29T21:30:06.229Z,16.67
2023-06-29T21:32:33.640Z,13.37
2023-06-29T21:35:00.742Z,15.00
2023-06-29T21:37:28.014Z,15.27
2023-06-29T21:39:54.865Z,18.07
2023-06-29T21:42:22.004Z,12.70
2023-06-29T21:44:49.074Z,17.17
2023-06-29T21:47:15.965Z,17.20
2023-06-29T21:49:43.043Z,17.17
2023-06-29T21:52:09.867Z,16.13
2023-06-29T21:54:37.023Z,17.03
2023-06-29T21:57:04.644Z,19.70
2023-06-29T21:59:31.520Z,17.63
2023-06-29T22:01:59.606Z,15.77
2023-06-29T22:04:26.540Z,18.13
2023-06-29T22:07:02.663Z,16.87
2023-06-29T22:09:39.026Z,20.33
2023-06-29T22:12:07.102Z,16.10
2023-06-29T22:14:33.950Z,15.77
2023-06-29T22:17:00.985Z,13.10
2023-06-29T22:19:29.503Z,13.60
2023-06-29T22:22:00.399Z,13.90
2023-06-29T22:24:27.652Z,13.57
2023-06-29T22:26:54.728Z,14.03
2023-06-29T22:29:21.898Z,15.53
2023-06-29T22:31:48.845Z,15.47
2023-06-29T22:34:15.831Z,16.60
2023-06-29T22:36:42.721Z,14.53
2023-06-29T22:39:09.859Z,17.10
2023-06-29T22:41:36.684Z,16.27
2023-06-29T22:44:03.603Z,13.07
2023-06-29T22:46:30.556Z,15.00
2023-06-29T22:48:57.431Z,13.97
2023-06-29T22:51:27.602Z,17.17
2023-06-29T22:53:54.802Z,17.53
2023-06-29T22:56:23.654Z,19.83
2023-06-29T22:59:13.240Z,18.50
2023-06-29T23:01:42.317Z,15.93
2023-06-29T23:04:09.699Z,19.63
2023-06-29T23:06:39.898Z,15.37
2023-06-29T23:09:09.019Z,17.73
2023-06-29T23:11:40.679Z,20.60
2023-06-29T23:14:14.837Z,18.10
2023-06-29T23:16:42.932Z,15.10
2023-06-29T23:19:09.932Z,14.63
2023-06-29T23:21:37.702Z,16.40
2023-06-29T23:24:06.446Z,15.83
2023-06-29T23:26:33.536Z,15.97
2023-06-29T23:52:13.102Z,16.23
2023-06-29T23:54:40.026Z,16.23
2023-06-29T23:57:07.467Z,17.93
2023-06-29T23:59:34.359Z,18.43
